sensor_id;sensor_type;location;lat;lon;timestamp;P1;durP1;ratioP1;P2;durP2;ratioP2
41719;SDS011;27405;53.316;-6.294;2023-11-19T00:01:41;22.58;;;4.75;;
41719;SDS011;27405;53.316;-6.294;2023-11-19T00:04:06;30.63;;;5.00;;
41719;SDS011;27405;53.316;-6.294;2023-11-19T00:06:33;29.75;;;5.53;;
41719;SDS011;27405;53.316;-6.294;2023-11-19T00:08:59;32.85;;;5.57;;
41719;SDS011;27405;53.316;-6.294;2023-11-19T00:11:25;33.00;;;6.30;;
41719;SDS011;27405;53.316;-6.294;2023-11-19T00:13:51;28.42;;;5.78;;
41719;SDS011;27405;53.316;-6.294;2023-11-19T00:16:17;33.47;;;6.00;;
41719;SDS011;27405;53.316;-6.294;2023-11-19T00:18:43;28.70;;;5.82;;
41719;SDS011;27405;53.316;-6.294;2023-11-19T00:21:09;33.17;;;5.32;;
41719;SDS011;27405;53.316;-6.294;2023-11-19T00:23:35;26.80;;;5.25;;
41719;SDS011;27405;53.316;-6.294;2023-11-19T00:26:01;25.27;;;5.13;;
41719;SDS011;27405;53.316;-6.294;2023-11-19T00:28:28;25.80;;;4.50;;
41719;SDS011;27405;53.316;-6.294;2023-11-19T00:30:54;28.05;;;4.82;;
41719;SDS011;27405;53.316;-6.294;2023-11-19T00:33:20;35.65;;;6.00;;
41719;SDS011;27405;53.316;-6.294;2023-11-19T00:35:46;34.83;;;6.35;;
41719;SDS011;27405;53.316;-6.294;2023-11-19T00:38:12;31.83;;;5.22;;
41719;SDS011;27405;53.316;-6.294;2023-11-19T00:40:38;31.88;;;5.75;;
41719;SDS011;27405;53.316;-6.294;2023-11-19T00:43:05;31.05;;;6.13;;
41719;SDS011;27405;53.316;-6.294;2023-11-19T00:48:54;30.88;;;5.03;;
41719;SDS011;27405;53.316;-6.294;2023-11-19T00:51:20;29.83;;;5.60;;
41719;SDS011;27405;53.316;-6.294;2023-11-19T00:53:46;32.60;;;5.82;;
41719;SDS011;27405;53.316;-6.294;2023-11-19T00:56:12;35.33;;;6.30;;
41719;SDS011;27405;53.316;-6.294;2023-11-19T00:58:38;30.27;;;4.50;;
41719;SDS011;27405;53.316;-6.294;2023-11-19T01:01:04;27.75;;;4.95;;
41719;SDS011;27405;53.316;-6.294;2023-11-19T01:03:30;28.52;;;5.32;;
41719;SDS011;27405;53.316;-6.294;2023-11-19T01:05:58;29.38;;;4.60;;
41719;SDS011;27405;53.316;-6.294;2023-11-19T01:08:26;33.53;;;5.13;;
41719;SDS011;27405;53.316;-6.294;2023-11-19T01:10:52;29.25;;;5.18;;
41719;SDS011;27405;53.316;-6.294;2023-11-19T01:13:18;34.00;;;4.80;;
41719;SDS011;27405;53.316;-6.294;2023-11-19T01:19:06;25.63;;;4.35;;
41719;SDS011;27405;53.316;-6.294;2023-11-19T01:21:32;25.85;;;4.82;;
41719;SDS011;27405;53.316;-6.294;2023-11-19T01:23:58;18.92;;;4.22;;
41719;SDS011;27405;53.316;-6.294;2023-11-19T01:26:24;23.63;;;4.28;;
41719;SDS011;27405;53.316;-6.294;2023-11-19T01:28:50;23.02;;;4.00;;
41719;SDS011;27405;53.316;-6.294;2023-11-19T01:31:17;18.35;;;3.75;;
41719;SDS011;27405;53.316;-6.294;2023-11-19T01:33:44;26.83;;;5.18;;
41719;SDS011;27405;53.316;-6.294;2023-11-19T01:36:14;25.55;;;4.82;;
41719;SDS011;27405;53.316;-6.294;2023-11-19T01:38:40;23.75;;;3.75;;
41719;SDS011;27405;53.316;-6.294;2023-11-19T01:41:06;20.60;;;4.13;;
41719;SDS011;27405;53.316;-6.294;2023-11-19T01:43:34;28.17;;;4.53;;
41719;SDS011;27405;53.316;-6.294;2023-11-19T01:46:06;24.52;;;3.95;;
41719;SDS011;27405;53.316;-6.294;2023-11-19T01:48:37;21.95;;;3.63;;
41719;SDS011;27405;53.316;-6.294;2023-11-19T01:51:08;24.95;;;3.63;;
41719;SDS011;27405;53.316;-6.294;2023-11-19T01:53:35;26.90;;;4.30;;
41719;SDS011;27405;53.316;-6.294;2023-11-19T01:56:03;23.50;;;4.28;;
41719;SDS011;27405;53.316;-6.294;2023-11-19T01:58:31;20.45;;;4.38;;
41719;SDS011;27405;53.316;-6.294;2023-11-19T02:00:57;22.77;;;4.47;;
41719;SDS011;27405;53.316;-6.294;2023-11-19T02:03:23;23.83;;;4.72;;
41719;SDS011;27405;53.316;-6.294;2023-11-19T02:05:51;26.13;;;4.83;;
41719;SDS011;27405;53.316;-6.294;2023-11-19T02:08:18;25.50;;;4.47;;
41719;SDS011;27405;53.316;-6.294;2023-11-19T02:10:45;30.33;;;4.75;;
41719;SDS011;27405;53.316;-6.294;2023-11-19T02:13:11;23.98;;;4.10;;
41719;SDS011;27405;53.316;-6.294;2023-11-19T02:15:39;22.45;;;3.72;;
41719;SDS011;27405;53.316;-6.294;2023-11-19T02:18:22;21.85;;;4.00;;
41719;SDS011;27405;53.316;-6.294;2023-11-19T02:20:53;21.10;;;3.75;;
41719;SDS011;27405;53.316;-6.294;2023-11-19T02:23:20;22.23;;;3.67;;
41719;SDS011;27405;53.316;-6.294;2023-11-19T02:26:13;23.08;;;3.45;;
41719;SDS011;27405;53.316;-6.294;2023-11-19T02:28:43;19.48;;;3.33;;
41719;SDS011;27405;53.316;-6.294;2023-11-19T02:31:10;23.77;;;4.35;;
41719;SDS011;27405;53.316;-6.294;2023-11-19T02:33:37;24.50;;;4.05;;
41719;SDS011;27405;53.316;-6.294;2023-11-19T02:36:04;23.58;;;4.00;;
41719;SDS011;27405;53.316;-6.294;2023-11-19T02:38:32;22.27;;;4.50;;
41719;SDS011;27405;53.316;-6.294;2023-11-19T02:40:58;26.13;;;4.05;;
41719;SDS011;27405;53.316;-6.294;2023-11-19T02:45:53;21.90;;;3.70;;
41719;SDS011;27405;53.316;-6.294;2023-11-19T02:48:20;23.90;;;3.90;;
41719;SDS011;27405;53.316;-6.294;2023-11-19T02:50:47;28.45;;;4.40;;
41719;SDS011;27405;53.316;-6.294;2023-11-19T02:53:13;23.30;;;4.18;;
41719;SDS011;27405;53.316;-6.294;2023-11-19T02:59:01;23.95;;;4.30;;
41719;SDS011;27405;53.316;-6.294;2023-11-19T03:01:37;23.08;;;4.47;;
41719;SDS011;27405;53.316;-6.294;2023-11-19T03:04:08;23.00;;;3.90;;
41719;SDS011;27405;53.316;-6.294;2023-11-19T03:06:37;23.08;;;4.05;;
41719;SDS011;27405;53.316;-6.294;2023-11-19T03:09:03;28.30;;;4.25;;
41719;SDS011;27405;53.316;-6.294;2023-11-19T03:11:35;24.75;;;3.95;;
41719;SDS011;27405;53.316;-6.294;2023-11-19T03:14:01;23.58;;;4.03;;
41719;SDS011;27405;53.316;-6.294;2023-11-19T03:16:28;18.70;;;4.15;;
41719;SDS011;27405;53.316;-6.294;2023-11-19T03:18:54;22.42;;;3.53;;
41719;SDS011;27405;53.316;-6.294;2023-11-19T03:21:30;24.42;;;4.22;;
41719;SDS011;27405;53.316;-6.294;2023-11-19T03:23:59;23.83;;;3.60;;
41719;SDS011;27405;53.316;-6.294;2023-11-19T03:26:27;18.80;;;3.35;;
41719;SDS011;27405;53.316;-6.294;2023-11-19T03:28:53;22.60;;;4.55;;
41719;SDS011;27405;53.316;-6.294;2023-11-19T03:31:20;16.83;;;3.20;;
41719;SDS011;27405;53.316;-6.294;2023-11-19T03:33:46;21.77;;;3.80;;
41719;SDS011;27405;53.316;-6.294;2023-11-19T03:36:12;24.90;;;3.85;;
41719;SDS011;27405;53.316;-6.294;2023-11-19T03:38:38;20.77;;;3.50;;
41719;SDS011;27405;53.316;-6.294;2023-11-19T03:43:37;21.13;;;3.75;;
41719;SDS011;27405;53.316;-6.294;2023-11-19T03:46:03;18.98;;;3.15;;
41719;SDS011;27405;53.316;-6.294;2023-11-19T03:48:30;21.40;;;5.13;;
41719;SDS011;27405;53.316;-6.294;2023-11-19T03:50:56;18.33;;;3.40;;
41719;SDS011;27405;53.316;-6.294;2023-11-19T03:53:22;17.58;;;3.40;;
41719;SDS011;27405;53.316;-6.294;2023-11-19T03:55:49;21.55;;;3.75;;
41719;SDS011;27405;53.316;-6.294;2023-11-19T03:58:15;22.67;;;3.70;;
41719;SDS011;27405;53.316;-6.294;2023-11-19T04:00:41;20.27;;;3.78;;
41719;SDS011;27405;53.316;-6.294;2023-11-19T04:03:07;18.17;;;3.85;;
41719;SDS011;27405;53.316;-6.294;2023-11-19T04:05:34;20.40;;;3.30;;
41719;SDS011;27405;53.316;-6.294;2023-11-19T04:08:00;15.88;;;2.90;;
41719;SDS011;27405;53.316;-6.294;2023-11-19T04:10:26;25.80;;;3.85;;
41719;SDS011;27405;53.316;-6.294;2023-11-19T04:12:52;21.77;;;3.70;;
41719;SDS011;27405;53.316;-6.294;2023-11-19T04:15:18;22.30;;;3.90;;
41719;SDS011;27405;53.316;-6.294;2023-11-19T04:17:44;15.60;;;3.08;;
41719;SDS011;27405;53.316;-6.294;2023-11-19T04:20:11;27.25;;;4.43;;
41719;SDS011;27405;53.316;-6.294;2023-11-19T04:22:38;18.30;;;3.50;;
41719;SDS011;27405;53.316;-6.294;2023-11-19T04:25:04;16.95;;;3.08;;
41719;SDS011;27405;53.316;-6.294;2023-11-19T04:27:31;19.45;;;3.33;;
41719;SDS011;27405;53.316;-6.294;2023-11-19T04:29:57;23.95;;;4.25;;
41719;SDS011;27405;53.316;-6.294;2023-11-19T04:32:23;21.10;;;3.40;;
41719;SDS011;27405;53.316;-6.294;2023-11-19T04:34:50;24.27;;;4.30;;
41719;SDS011;27405;53.316;-6.294;2023-11-19T04:37:16;22.58;;;3.55;;
41719;SDS011;27405;53.316;-6.294;2023-11-19T04:39:44;20.45;;;3.42;;
41719;SDS011;27405;53.316;-6.294;2023-11-19T04:42:11;18.52;;;3.20;;
41719;SDS011;27405;53.316;-6.294;2023-11-19T04:44:37;17.00;;;2.90;;
41719;SDS011;27405;53.316;-6.294;2023-11-19T04:47:03;18.52;;;2.95;;
41719;SDS011;27405;53.316;-6.294;2023-11-19T04:49:29;14.48;;;2.47;;
41719;SDS011;27405;53.316;-6.294;2023-11-19T04:51:55;17.23;;;2.90;;
41719;SDS011;27405;53.316;-6.294;2023-11-19T04:54:21;13.65;;;2.90;;
41719;SDS011;27405;53.316;-6.294;2023-11-19T04:56:48;20.58;;;3.30;;
41719;SDS011;27405;53.316;-6.294;2023-11-19T04:59:14;20.08;;;2.90;;
41719;SDS011;27405;53.316;-6.294;2023-11-19T05:01:40;16.23;;;3.15;;
41719;SDS011;27405;53.316;-6.294;2023-11-19T05:04:07;17.65;;;2.83;;
41719;SDS011;27405;53.316;-6.294;2023-11-19T05:06:33;16.17;;;2.95;;
41719;SDS011;27405;53.316;-6.294;2023-11-19T05:09:00;19.80;;;3.03;;
41719;SDS011;27405;53.316;-6.294;2023-11-19T05:11:28;16.02;;;3.08;;
41719;SDS011;27405;53.316;-6.294;2023-11-19T05:13:54;14.43;;;2.50;;
41719;SDS011;27405;53.316;-6.294;2023-11-19T05:16:20;17.70;;;2.50;;
41719;SDS011;27405;53.316;-6.294;2023-11-19T05:18:46;18.13;;;2.85;;
41719;SDS011;27405;53.316;-6.294;2023-11-19T05:21:12;19.85;;;3.03;;
41719;SDS011;27405;53.316;-6.294;2023-11-19T05:23:38;15.65;;;2.83;;
41719;SDS011;27405;53.316;-6.294;2023-11-19T05:26:06;14.13;;;2.60;;
41719;SDS011;27405;53.316;-6.294;2023-11-19T05:28:32;15.10;;;2.63;;
41719;SDS011;27405;53.316;-6.294;2023-11-19T05:30:58;16.02;;;2.45;;
41719;SDS011;27405;53.316;-6.294;2023-11-19T05:33:24;13.57;;;2.67;;
41719;SDS011;27405;53.316;-6.294;2023-11-19T05:39:12;15.38;;;2.80;;
41719;SDS011;27405;53.316;-6.294;2023-11-19T05:41:38;13.20;;;2.58;;
41719;SDS011;27405;53.316;-6.294;2023-11-19T05:44:04;13.82;;;2.45;;
41719;SDS011;27405;53.316;-6.294;2023-11-19T05:46:30;15.48;;;2.67;;
41719;SDS011;27405;53.316;-6.294;2023-11-19T05:48:56;11.48;;;2.60;;
41719;SDS011;27405;53.316;-6.294;2023-11-19T05:51:23;12.52;;;2.05;;
41719;SDS011;27405;53.316;-6.294;2023-11-19T05:53:51;15.70;;;2.55;;
41719;SDS011;27405;53.316;-6.294;2023-11-19T05:56:17;15.90;;;2.72;;
41719;SDS011;27405;53.316;-6.294;2023-11-19T05:58:47;14.07;;;2.30;;
41719;SDS011;27405;53.316;-6.294;2023-11-19T06:01:14;13.23;;;2.10;;
41719;SDS011;27405;53.316;-6.294;2023-11-19T06:03:40;9.05;;;1.58;;
41719;SDS011;27405;53.316;-6.294;2023-11-19T06:06:08;8.67;;;2.00;;
41719;SDS011;27405;53.316;-6.294;2023-11-19T06:08:34;10.23;;;2.13;;
41719;SDS011;27405;53.316;-6.294;2023-11-19T06:11:00;11.65;;;2.30;;
41719;SDS011;27405;53.316;-6.294;2023-11-19T06:13:27;10.18;;;1.73;;
41719;SDS011;27405;53.316;-6.294;2023-11-19T06:15:53;13.05;;;2.28;;
41719;SDS011;27405;53.316;-6.294;2023-11-19T06:18:19;13.45;;;1.98;;
41719;SDS011;27405;53.316;-6.294;2023-11-19T06:20:48;9.20;;;1.92;;
41719;SDS011;27405;53.316;-6.294;2023-11-19T06:23:15;9.98;;;1.45;;
41719;SDS011;27405;53.316;-6.294;2023-11-19T06:25:40;11.57;;;2.55;;
41719;SDS011;27405;53.316;-6.294;2023-11-19T06:28:07;10.32;;;1.67;;
41719;SDS011;27405;53.316;-6.294;2023-11-19T06:30:33;9.45;;;1.40;;
41719;SDS011;27405;53.316;-6.294;2023-11-19T06:32:58;9.45;;;1.42;;
41719;SDS011;27405;53.316;-6.294;2023-11-19T06:35:25;7.15;;;1.38;;
41719;SDS011;27405;53.316;-6.294;2023-11-19T06:37:51;10.48;;;1.80;;
41719;SDS011;27405;53.316;-6.294;2023-11-19T06:40:17;12.10;;;1.88;;
41719;SDS011;27405;53.316;-6.294;2023-11-19T06:42:43;9.65;;;1.90;;
41719;SDS011;27405;53.316;-6.294;2023-11-19T06:45:09;15.07;;;2.47;;
41719;SDS011;27405;53.316;-6.294;2023-11-19T06:47:35;13.68;;;2.42;;
41719;SDS011;27405;53.316;-6.294;2023-11-19T06:50:01;15.45;;;2.47;;
41719;SDS011;27405;53.316;-6.294;2023-11-19T06:52:30;11.85;;;2.13;;
41719;SDS011;27405;53.316;-6.294;2023-11-19T06:54:56;17.63;;;2.92;;
41719;SDS011;27405;53.316;-6.294;2023-11-19T06:57:22;12.38;;;2.05;;
41719;SDS011;27405;53.316;-6.294;2023-11-19T06:59:48;15.35;;;2.10;;
41719;SDS011;27405;53.316;-6.294;2023-11-19T07:02:14;15.43;;;2.55;;
41719;SDS011;27405;53.316;-6.294;2023-11-19T07:04:40;10.10;;;1.85;;
41719;SDS011;27405;53.316;-6.294;2023-11-19T07:07:06;14.02;;;2.40;;
41719;SDS011;27405;53.316;-6.294;2023-11-19T07:09:32;13.25;;;2.30;;
41719;SDS011;27405;53.316;-6.294;2023-11-19T07:11:58;10.50;;;2.10;;
41719;SDS011;27405;53.316;-6.294;2023-11-19T07:14:26;13.18;;;1.98;;
41719;SDS011;27405;53.316;-6.294;2023-11-19T07:16:53;11.70;;;2.33;;
41719;SDS011;27405;53.316;-6.294;2023-11-19T07:19:21;10.90;;;2.45;;
41719;SDS011;27405;53.316;-6.294;2023-11-19T07:21:47;10.20;;;1.83;;
41719;SDS011;27405;53.316;-6.294;2023-11-19T07:24:13;12.90;;;2.15;;
41719;SDS011;27405;53.316;-6.294;2023-11-19T07:26:42;12.43;;;2.28;;
41719;SDS011;27405;53.316;-6.294;2023-11-19T07:29:09;6.43;;;1.35;;
41719;SDS011;27405;53.316;-6.294;2023-11-19T07:31:36;8.80;;;1.63;;
41719;SDS011;27405;53.316;-6.294;2023-11-19T07:34:02;10.25;;;1.92;;
41719;SDS011;27405;53.316;-6.294;2023-11-19T07:36:28;10.30;;;2.10;;
41719;SDS011;27405;53.316;-6.294;2023-11-19T07:38:54;9.63;;;1.90;;
41719;SDS011;27405;53.316;-6.294;2023-11-19T07:41:22;7.07;;;1.87;;
41719;SDS011;27405;53.316;-6.294;2023-11-19T07:43:50;14.77;;;2.38;;
41719;SDS011;27405;53.316;-6.294;2023-11-19T07:46:16;10.65;;;1.77;;
41719;SDS011;27405;53.316;-6.294;2023-11-19T07:48:45;5.97;;;1.60;;
41719;SDS011;27405;53.316;-6.294;2023-11-19T07:51:12;7.78;;;1.50;;
41719;SDS011;27405;53.316;-6.294;2023-11-19T07:53:39;7.45;;;1.70;;
41719;SDS011;27405;53.316;-6.294;2023-11-19T07:56:06;10.63;;;1.77;;
41719;SDS011;27405;53.316;-6.294;2023-11-19T07:58:32;10.80;;;1.55;;
41719;SDS011;27405;53.316;-6.294;2023-11-19T08:00:58;11.73;;;1.60;;
41719;SDS011;27405;53.316;-6.294;2023-11-19T08:03:24;6.93;;;1.58;;
41719;SDS011;27405;53.316;-6.294;2023-11-19T08:05:50;9.82;;;2.05;;
41719;SDS011;27405;53.316;-6.294;2023-11-19T08:08:16;5.15;;;1.33;;
41719;SDS011;27405;53.316;-6.294;2023-11-19T08:10:43;8.65;;;1.35;;
41719;SDS011;27405;53.316;-6.294;2023-11-19T08:13:10;6.07;;;1.27;;
41719;SDS011;27405;53.316;-6.294;2023-11-19T08:15:36;8.00;;;1.30;;
41719;SDS011;27405;53.316;-6.294;2023-11-19T08:18:02;5.20;;;1.10;;
41719;SDS011;27405;53.316;-6.294;2023-11-19T08:20:28;6.20;;;0.90;;
41719;SDS011;27405;53.316;-6.294;2023-11-19T08:22:54;3.55;;;0.90;;
41719;SDS011;27405;53.316;-6.294;2023-11-19T08:25:20;7.13;;;1.10;;
41719;SDS011;27405;53.316;-6.294;2023-11-19T08:27:46;4.15;;;0.80;;
41719;SDS011;27405;53.316;-6.294;2023-11-19T08:30:12;5.50;;;0.90;;
41719;SDS011;27405;53.316;-6.294;2023-11-19T08:32:39;5.18;;;1.25;;
41719;SDS011;27405;53.316;-6.294;2023-11-19T08:35:05;5.57;;;1.02;;
41719;SDS011;27405;53.316;-6.294;2023-11-19T08:37:31;4.95;;;1.05;;
41719;SDS011;27405;53.316;-6.294;2023-11-19T08:39:57;4.50;;;1.00;;
41719;SDS011;27405;53.316;-6.294;2023-11-19T08:42:23;7.03;;;0.80;;
41719;SDS011;27405;53.316;-6.294;2023-11-19T08:44:49;2.38;;;0.98;;
41719;SDS011;27405;53.316;-6.294;2023-11-19T08:47:18;1.75;;;0.65;;
41719;SDS011;27405;53.316;-6.294;2023-11-19T08:49:45;3.10;;;0.90;;
41719;SDS011;27405;53.316;-6.294;2023-11-19T08:52:11;2.95;;;0.70;;
41719;SDS011;27405;53.316;-6.294;2023-11-19T08:54:37;2.17;;;0.55;;
41719;SDS011;27405;53.316;-6.294;2023-11-19T08:57:07;1.52;;;0.55;;
41719;SDS011;27405;53.316;-6.294;2023-11-19T08:59:34;2.42;;;0.75;;
41719;SDS011;27405;53.316;-6.294;2023-11-19T09:02:00;4.47;;;0.68;;
41719;SDS011;27405;53.316;-6.294;2023-11-19T09:04:27;1.92;;;0.40;;
41719;SDS011;27405;53.316;-6.294;2023-11-19T09:06:53;1.35;;;0.40;;
41719;SDS011;27405;53.316;-6.294;2023-11-19T09:09:21;1.08;;;0.40;;
41719;SDS011;27405;53.316;-6.294;2023-11-19T09:11:47;1.15;;;0.40;;
41719;SDS011;27405;53.316;-6.294;2023-11-19T09:14:13;0.43;;;0.43;;
41719;SDS011;27405;53.316;-6.294;2023-11-19T09:16:39;0.30;;;0.30;;
41719;SDS011;27405;53.316;-6.294;2023-11-19T09:19:05;1.27;;;0.30;;
41719;SDS011;27405;53.316;-6.294;2023-11-19T09:21:31;0.73;;;0.30;;
41719;SDS011;27405;53.316;-6.294;2023-11-19T09:23:59;0.80;;;0.35;;
41719;SDS011;27405;53.316;-6.294;2023-11-19T09:26:25;1.75;;;0.40;;
41719;SDS011;27405;53.316;-6.294;2023-11-19T09:28:51;0.50;;;0.28;;
41719;SDS011;27405;53.316;-6.294;2023-11-19T09:31:17;1.05;;;0.30;;
41719;SDS011;27405;53.316;-6.294;2023-11-19T09:33:44;0.30;;;0.20;;
41719;SDS011;27405;53.316;-6.294;2023-11-19T09:36:14;1.65;;;0.40;;
41719;SDS011;27405;53.316;-6.294;2023-11-19T09:38:42;1.48;;;0.60;;
41719;SDS011;27405;53.316;-6.294;2023-11-19T09:43:41;0.47;;;0.30;;
41719;SDS011;27405;53.316;-6.294;2023-11-19T09:46:11;0.80;;;0.30;;
41719;SDS011;27405;53.316;-6.294;2023-11-19T09:48:40;1.60;;;0.50;;
41719;SDS011;27405;53.316;-6.294;2023-11-19T09:51:07;1.23;;;0.65;;
41719;SDS011;27405;53.316;-6.294;2023-11-19T09:53:35;1.48;;;0.77;;
41719;SDS011;27405;53.316;-6.294;2023-11-19T09:56:05;0.75;;;0.50;;
41719;SDS011;27405;53.316;-6.294;2023-11-19T09:58:33;1.77;;;0.60;;
41719;SDS011;27405;53.316;-6.294;2023-11-19T10:01:00;1.73;;;0.68;;
41719;SDS011;27405;53.316;-6.294;2023-11-19T10:03:28;9.35;;;3.33;;
41719;SDS011;27405;53.316;-6.294;2023-11-19T10:06:08;3.35;;;0.90;;
41719;SDS011;27405;53.316;-6.294;2023-11-19T10:08:39;5.57;;;0.70;;
41719;SDS011;27405;53.316;-6.294;2023-11-19T10:11:06;2.78;;;0.88;;
41719;SDS011;27405;53.316;-6.294;2023-11-19T10:13:35;2.75;;;0.77;;
41719;SDS011;27405;53.316;-6.294;2023-11-19T10:16:07;2.72;;;0.70;;
41719;SDS011;27405;53.316;-6.294;2023-11-19T10:18:34;3.72;;;0.73;;
41719;SDS011;27405;53.316;-6.294;2023-11-19T10:24:31;3.00;;;1.02;;
41719;SDS011;27405;53.316;-6.294;2023-11-19T10:26:59;2.60;;;0.80;;
41719;SDS011;27405;53.316;-6.294;2023-11-19T10:29:29;4.85;;;0.90;;
41719;SDS011;27405;53.316;-6.294;2023-11-19T10:31:55;4.43;;;0.90;;
41719;SDS011;27405;53.316;-6.294;2023-11-19T10:34:26;3.75;;;0.90;;
41719;SDS011;27405;53.316;-6.294;2023-11-19T10:36:52;2.35;;;0.80;;
41719;SDS011;27405;53.316;-6.294;2023-11-19T10:39:19;4.85;;;0.80;;
41719;SDS011;27405;53.316;-6.294;2023-11-19T10:41:46;5.53;;;1.13;;
41719;SDS011;27405;53.316;-6.294;2023-11-19T10:44:12;4.55;;;0.85;;
41719;SDS011;27405;53.316;-6.294;2023-11-19T10:46:55;4.18;;;1.10;;
41719;SDS011;27405;53.316;-6.294;2023-11-19T10:49:21;3.78;;;0.80;;
41719;SDS011;27405;53.316;-6.294;2023-11-19T10:51:47;5.03;;;1.10;;
41719;SDS011;27405;53.316;-6.294;2023-11-19T10:54:15;3.03;;;0.88;;
41719;SDS011;27405;53.316;-6.294;2023-11-19T10:56:44;2.70;;;0.93;;
41719;SDS011;27405;53.316;-6.294;2023-11-19T10:59:13;1.67;;;0.65;;
41719;SDS011;27405;53.316;-6.294;2023-11-19T11:01:45;2.63;;;0.85;;
41719;SDS011;27405;53.316;-6.294;2023-11-19T11:04:13;2.90;;;0.70;;
41719;SDS011;27405;53.316;-6.294;2023-11-19T11:06:42;3.85;;;0.98;;
41719;SDS011;27405;53.316;-6.294;2023-11-19T11:09:09;1.73;;;0.70;;
41719;SDS011;27405;53.316;-6.294;2023-11-19T11:11:39;1.55;;;0.82;;
41719;SDS011;27405;53.316;-6.294;2023-11-19T11:14:09;2.65;;;0.90;;
41719;SDS011;27405;53.316;-6.294;2023-11-19T11:16:44;3.28;;;0.80;;
41719;SDS011;27405;53.316;-6.294;2023-11-19T11:19:13;4.78;;;0.80;;
41719;SDS011;27405;53.316;-6.294;2023-11-19T11:21:43;1.50;;;0.80;;
41719;SDS011;27405;53.316;-6.294;2023-11-19T11:29:35;2.50;;;0.70;;
41719;SDS011;27405;53.316;-6.294;2023-11-19T11:37:37;2.63;;;1.00;;
41719;SDS011;27405;53.316;-6.294;2023-11-19T11:40:16;3.20;;;1.30;;
41719;SDS011;27405;53.316;-6.294;2023-11-19T11:42:45;1.27;;;0.75;;
41719;SDS011;27405;53.316;-6.294;2023-11-19T11:45:12;3.83;;;0.90;;
41719;SDS011;27405;53.316;-6.294;2023-11-19T11:50:12;1.85;;;0.85;;
41719;SDS011;27405;53.316;-6.294;2023-11-19T11:55:27;1.73;;;0.68;;
41719;SDS011;27405;53.316;-6.294;2023-11-19T11:57:54;2.05;;;0.82;;
41719;SDS011;27405;53.316;-6.294;2023-11-19T12:00:27;1.75;;;0.90;;
41719;SDS011;27405;53.316;-6.294;2023-11-19T12:02:56;1.23;;;0.70;;
41719;SDS011;27405;53.316;-6.294;2023-11-19T12:05:26;3.38;;;1.20;;
41719;SDS011;27405;53.316;-6.294;2023-11-19T12:07:56;2.25;;;1.13;;
41719;SDS011;27405;53.316;-6.294;2023-11-19T12:10:28;2.75;;;1.08;;
41719;SDS011;27405;53.316;-6.294;2023-11-19T12:12:58;1.05;;;0.70;;
41719;SDS011;27405;53.316;-6.294;2023-11-19T12:15:25;1.17;;;0.75;;
41719;SDS011;27405;53.316;-6.294;2023-11-19T12:17:53;6.72;;;1.20;;
41719;SDS011;27405;53.316;-6.294;2023-11-19T12:20:20;0.98;;;0.88;;
41719;SDS011;27405;53.316;-6.294;2023-11-19T12:22:48;1.95;;;1.10;;
41719;SDS011;27405;53.316;-6.294;2023-11-19T12:25:14;3.60;;;0.80;;
41719;SDS011;27405;53.316;-6.294;2023-11-19T12:27:42;3.50;;;1.10;;
41719;SDS011;27405;53.316;-6.294;2023-11-19T12:30:09;4.75;;;0.80;;
41719;SDS011;27405;53.316;-6.294;2023-11-19T12:32:42;2.05;;;0.73;;
41719;SDS011;27405;53.316;-6.294;2023-11-19T12:35:10;1.63;;;0.82;;
41719;SDS011;27405;53.316;-6.294;2023-11-19T12:37:43;5.55;;;1.10;;
41719;SDS011;27405;53.316;-6.294;2023-11-19T12:40:19;3.67;;;0.90;;
41719;SDS011;27405;53.316;-6.294;2023-11-19T12:42:49;2.22;;;1.02;;
41719;SDS011;27405;53.316;-6.294;2023-11-19T12:45:16;6.15;;;0.90;;
41719;SDS011;27405;53.316;-6.294;2023-11-19T12:47:44;2.60;;;1.10;;
41719;SDS011;27405;53.316;-6.294;2023-11-19T12:50:12;3.10;;;1.08;;
41719;SDS011;27405;53.316;-6.294;2023-11-19T12:52:39;4.13;;;1.40;;
41719;SDS011;27405;53.316;-6.294;2023-11-19T12:55:06;7.20;;;2.47;;
41719;SDS011;27405;53.316;-6.294;2023-11-19T12:57:51;6.22;;;1.77;;
41719;SDS011;27405;53.316;-6.294;2023-11-19T13:00:21;12.60;;;2.20;;
41719;SDS011;27405;53.316;-6.294;2023-11-19T13:02:49;12.05;;;2.38;;
41719;SDS011;27405;53.316;-6.294;2023-11-19T13:08:14;19.38;;;3.22;;
41719;SDS011;27405;53.316;-6.294;2023-11-19T13:13:13;15.35;;;3.00;;
41719;SDS011;27405;53.316;-6.294;2023-11-19T13:15:39;22.17;;;3.70;;
41719;SDS011;27405;53.316;-6.294;2023-11-19T13:18:05;20.65;;;3.40;;
41719;SDS011;27405;53.316;-6.294;2023-11-19T13:20:31;22.67;;;3.83;;
41719;SDS011;27405;53.316;-6.294;2023-11-19T13:22:58;19.10;;;3.33;;
41719;SDS011;27405;53.316;-6.294;2023-11-19T13:25:29;17.92;;;3.65;;
41719;SDS011;27405;53.316;-6.294;2023-11-19T13:27:56;21.50;;;4.72;;
41719;SDS011;27405;53.316;-6.294;2023-11-19T13:30:23;23.23;;;4.82;;
41719;SDS011;27405;53.316;-6.294;2023-11-19T13:32:50;22.23;;;4.03;;
41719;SDS011;27405;53.316;-6.294;2023-11-19T13:35:17;20.65;;;4.70;;
41719;SDS011;27405;53.316;-6.294;2023-11-19T13:37:44;19.90;;;5.00;;
41719;SDS011;27405;53.316;-6.294;2023-11-19T13:40:10;24.48;;;5.10;;
41719;SDS011;27405;53.316;-6.294;2023-11-19T13:45:07;17.67;;;4.10;;
41719;SDS011;27405;53.316;-6.294;2023-11-19T13:47:38;22.60;;;3.70;;
41719;SDS011;27405;53.316;-6.294;2023-11-19T13:50:09;20.92;;;3.63;;
41719;SDS011;27405;53.316;-6.294;2023-11-19T13:52:41;19.40;;;3.72;;
41719;SDS011;27405;53.316;-6.294;2023-11-19T13:55:10;20.70;;;3.75;;
41719;SDS011;27405;53.316;-6.294;2023-11-19T13:57:37;16.50;;;3.10;;
41719;SDS011;27405;53.316;-6.294;2023-11-19T14:00:04;21.15;;;4.00;;
41719;SDS011;27405;53.316;-6.294;2023-11-19T14:02:40;16.77;;;3.42;;
41719;SDS011;27405;53.316;-6.294;2023-11-19T14:05:16;17.27;;;2.60;;
41719;SDS011;27405;53.316;-6.294;2023-11-19T14:07:42;14.50;;;3.05;;
41719;SDS011;27405;53.316;-6.294;2023-11-19T14:10:09;16.58;;;3.30;;
41719;SDS011;27405;53.316;-6.294;2023-11-19T14:12:38;17.45;;;3.47;;
41719;SDS011;27405;53.316;-6.294;2023-11-19T14:15:05;20.27;;;3.35;;
41719;SDS011;27405;53.316;-6.294;2023-11-19T14:17:32;25.02;;;5.78;;
41719;SDS011;27405;53.316;-6.294;2023-11-19T14:20:01;22.23;;;3.88;;
41719;SDS011;27405;53.316;-6.294;2023-11-19T14:22:37;23.00;;;5.97;;
41719;SDS011;27405;53.316;-6.294;2023-11-19T14:25:08;24.45;;;5.85;;
41719;SDS011;27405;53.316;-6.294;2023-11-19T14:27:37;22.50;;;5.03;;
41719;SDS011;27405;53.316;-6.294;2023-11-19T14:30:06;29.95;;;8.93;;
41719;SDS011;27405;53.316;-6.294;2023-11-19T14:32:38;24.90;;;5.55;;
41719;SDS011;27405;53.316;-6.294;2023-11-19T14:35:07;21.85;;;4.45;;
41719;SDS011;27405;53.316;-6.294;2023-11-19T14:37:33;18.70;;;3.58;;
41719;SDS011;27405;53.316;-6.294;2023-11-19T14:39:59;21.33;;;3.42;;
41719;SDS011;27405;53.316;-6.294;2023-11-19T14:42:30;18.10;;;3.65;;
41719;SDS011;27405;53.316;-6.294;2023-11-19T14:44:56;24.65;;;4.35;;
41719;SDS011;27405;53.316;-6.294;2023-11-19T14:47:22;24.77;;;5.65;;
41719;SDS011;27405;53.316;-6.294;2023-11-19T14:49:48;20.92;;;5.72;;
41719;SDS011;27405;53.316;-6.294;2023-11-19T14:52:14;22.73;;;4.97;;
41719;SDS011;27405;53.316;-6.294;2023-11-19T14:54:41;22.67;;;3.63;;
41719;SDS011;27405;53.316;-6.294;2023-11-19T14:57:07;16.27;;;2.97;;
41719;SDS011;27405;53.316;-6.294;2023-11-19T14:59:36;20.33;;;4.10;;
41719;SDS011;27405;53.316;-6.294;2023-11-19T15:02:03;16.00;;;3.33;;
41719;SDS011;27405;53.316;-6.294;2023-11-19T15:04:30;19.25;;;3.47;;
41719;SDS011;27405;53.316;-6.294;2023-11-19T15:06:57;19.52;;;3.38;;
41719;SDS011;27405;53.316;-6.294;2023-11-19T15:09:24;15.07;;;3.33;;
41719;SDS011;27405;53.316;-6.294;2023-11-19T15:11:50;17.67;;;3.55;;
41719;SDS011;27405;53.316;-6.294;2023-11-19T15:14:19;19.80;;;3.80;;
41719;SDS011;27405;53.316;-6.294;2023-11-19T15:16:45;22.67;;;4.03;;